createdAt,value
2022-11-24T00:00:20.348Z,9.80
2022-11-24T00:02:50.678Z,9.70
2022-11-24T00:05:20.968Z,9.80
2022-11-24T00:07:51.306Z,9.70
2022-11-24T00:10:24.270Z,9.80
2022-11-24T00:12:54.646Z,9.80
2022-11-24T00:15:24.920Z,9.80
2022-11-24T00:17:55.143Z,9.80
2022-11-24T00:20:25.450Z,9.80
2022-11-24T00:22:56.075Z,9.80
2022-11-24T00:25:29.006Z,9.90
2022-11-24T00:27:59.284Z,9.80
2022-11-24T00:30:29.604Z,9.80
2022-11-24T00:32:59.868Z,9.70
2022-11-24T00:35:30.139Z,9.80
2022-11-24T00:38:00.425Z,9.70
2022-11-24T00:40:35.126Z,9.80
2022-11-24T00:43:05.557Z,9.70
2022-11-24T00:45:35.815Z,9.70
2022-11-24T00:48:06.108Z,9.80
2022-11-24T00:50:36.386Z,9.80
2022-11-24T00:53:06.898Z,9.70
2022-11-24T00:55:39.784Z,9.80
2022-11-24T00:58:10.011Z,9.80
2022-11-24T01:00:40.188Z,9.80
2022-11-24T01:03:10.541Z,9.90
2022-11-24T01:05:41.090Z,9.80
2022-11-24T01:08:12.120Z,9.80
2022-11-24T01:10:45.015Z,9.90
2022-11-24T01:13:15.288Z,9.90
2022-11-24T01:15:45.522Z,9.80
2022-11-24T01:18:15.785Z,9.80
2022-11-24T01:20:45.972Z,9.80
2022-11-24T01:23:16.161Z,9.80
2022-11-24T01:25:49.178Z,9.80
2022-11-24T01:28:19.758Z,9.80
2022-11-24T01:30:59.286Z,9.80
2022-11-24T01:33:29.925Z,9.90
2022-11-24T01:36:00.700Z,9.90
2022-11-24T01:38:31.311Z,9.80
2022-11-24T01:41:09.188Z,9.80
2022-11-24T01:43:39.663Z,9.90
2022-11-24T01:46:19.106Z,9.80
2022-11-24T01:48:54.002Z,9.80
2022-11-24T01:51:27.564Z,9.90
2022-11-24T01:54:03.775Z,9.90
2022-11-24T01:56:41.855Z,9.90
2022-11-24T01:59:15.510Z,10.00
2022-11-24T02:01:46.093Z,9.90
2022-11-24T02:04:20.672Z,9.90
2022-11-24T02:06:51.715Z,9.90
2022-11-24T02:09:27.033Z,10.00
2022-11-24T02:12:01.782Z,10.00
2022-11-24T02:14:32.440Z,10.00
2022-11-24T02:17:03.043Z,9.90
2022-11-24T02:19:46.143Z,9.90
2022-11-24T02:22:21.410Z,9.90
2022-11-24T02:24:55.793Z,9.90
2022-11-24T02:27:28.924Z,9.90
2022-11-24T02:29:59.214Z,9.90
2022-11-24T02:32:30.668Z,9.90
2022-11-24T02:35:04.756Z,10.00
2022-11-24T02:37:34.987Z,9.90
2022-11-24T02:40:05.306Z,9.90
2022-11-24T02:42:42.482Z,10.00
2022-11-24T02:45:14.635Z,10.00
2022-11-24T02:47:46.127Z,10.00
2022-11-24T02:50:16.420Z,10.00
2022-11-24T02:52:46.764Z,10.00
2022-11-24T02:55:20.432Z,10.00
2022-11-24T02:57:53.542Z,10.00
2022-11-24T03:00:23.972Z,10.10
2022-11-24T03:02:54.382Z,10.10
2022-11-24T03:05:24.743Z,10.10
2022-11-24T03:07:55.054Z,10.00
2022-11-24T03:10:25.542Z,10.10
2022-11-24T03:12:58.791Z,10.10
2022-11-24T03:15:29.091Z,10.00
2022-11-24T03:17:59.502Z,10.00
2022-11-24T03:20:29.783Z,10.00
2022-11-24T03:23:00.154Z,10.10
2022-11-24T03:25:30.450Z,10.00
2022-11-24T03:28:03.330Z,10.00
2022-11-24T03:30:33.616Z,10.20
2022-11-24T03:33:05.195Z,10.00
2022-11-24T03:35:35.488Z,10.00
2022-11-24T03:38:05.790Z,10.00
2022-11-24T03:40:36.022Z,10.00
2022-11-24T03:43:08.895Z,10.00
2022-11-24T03:45:46.025Z,10.00
2022-11-24T03:48:16.706Z,10.00
2022-11-24T03:50:47.214Z,10.00
2022-11-24T03:53:17.453Z,10.00
2022-11-24T03:55:48.144Z,10.10
2022-11-24T03:58:21.283Z,10.00
2022-11-24T04:00:52.426Z,10.00
2022-11-24T04:03:23.372Z,10.00
2022-11-24T04:05:54.059Z,10.00
2022-11-24T04:08:24.858Z,10.00
2022-11-24T04:10:56.888Z,10.10
2022-11-24T04:13:27.506Z,10.00
2022-11-24T04:15:58.059Z,10.00
2022-11-24T04:18:28.377Z,10.00
2022-11-24T04:20:58.620Z,9.90
2022-11-24T04:23:28.884Z,10.00
2022-11-24T04:25:59.192Z,9.90
2022-11-24T04:28:32.106Z,9.90
2022-11-24T04:31:05.331Z,9.80
2022-11-24T04:33:35.989Z,9.90
2022-11-24T04:36:06.599Z,9.90
2022-11-24T04:39:19.451Z,9.80
2022-11-24T04:41:27.166Z,9.90
2022-11-24T04:44:00.010Z,9.80
2022-11-24T04:46:30.350Z,9.80
2022-11-24T04:49:00.628Z,9.80
2022-11-24T04:51:30.842Z,9.70
2022-11-24T04:54:01.092Z,9.70
2022-11-24T04:56:31.379Z,9.80
2022-11-24T04:59:08.196Z,9.70
2022-11-24T05:01:39.061Z,9.60
2022-11-24T05:04:09.440Z,9.70
2022-11-24T05:06:39.872Z,9.70
2022-11-24T05:09:10.537Z,9.70
2022-11-24T05:11:40.726Z,9.70
2022-11-24T05:14:13.562Z,9.60
2022-11-24T05:16:43.765Z,9.70
2022-11-24T05:19:14.281Z,9.50
2022-11-24T05:21:44.566Z,9.60
2022-11-24T05:24:14.946Z,9.70
2022-11-24T05:26:45.278Z,9.50
2022-11-24T05:29:18.273Z,9.50
2022-11-24T05:31:48.520Z,9.50
2022-11-24T05:34:19.011Z,9.50
2022-11-24T05:37:03.161Z,9.50
2022-11-24T05:39:34.905Z,9.50
2022-11-24T05:42:27.527Z,9.50
2022-11-24T05:45:00.509Z,9.60
2022-11-24T05:47:30.739Z,9.50
2022-11-24T05:50:00.942Z,9.50
2022-11-24T05:52:31.198Z,9.50
2022-11-24T05:55:01.439Z,9.40
2022-11-24T05:57:31.733Z,9.40
2022-11-24T06:00:04.683Z,9.40
2022-11-24T06:02:42.776Z,9.40
2022-11-24T06:05:13.084Z,9.40
2022-11-24T06:07:43.416Z,9.40
2022-11-24T06:10:13.715Z,9.30
2022-11-24T06:12:43.938Z,9.40
2022-11-24T06:15:17.472Z,9.30
2022-11-24T06:17:47.768Z,9.30
2022-11-24T06:20:18.224Z,9.30
2022-11-24T06:22:48.420Z,9.40
2022-11-24T06:25:21.535Z,9.30
2022-11-24T06:27:51.777Z,9.20
2022-11-24T06:30:24.790Z,9.30
2022-11-24T06:32:58.018Z,9.20
2022-11-24T06:35:28.259Z,9.20
2022-11-24T06:37:58.510Z,9.20
2022-11-24T06:40:28.736Z,9.20
2022-11-24T06:42:58.932Z,9.30
2022-11-24T06:45:31.816Z,9.20
2022-11-24T06:48:01.947Z,9.20
2022-11-24T06:50:33.678Z,9.20
2022-11-24T06:53:04.202Z,9.20
2022-11-24T06:55:34.542Z,9.20
2022-11-24T06:58:04.995Z,9.30
2022-11-24T07:00:37.947Z,9.20
2022-11-24T07:03:08.263Z,9.20
2022-11-24T07:05:38.502Z,9.10
2022-11-24T07:08:12.034Z,9.10
2022-11-24T07:10:50.614Z,9.20
2022-11-24T07:13:20.877Z,9.30
2022-11-24T07:15:53.679Z,9.10
2022-11-24T07:18:23.884Z,9.20
2022-11-24T07:20:54.552Z,9.20
2022-11-24T07:23:24.775Z,9.10
2022-11-24T07:25:55.048Z,9.10
2022-11-24T07:28:25.310Z,9.00
2022-11-24T07:30:58.813Z,9.00
2022-11-24T07:33:29.149Z,9.00
2022-11-24T07:36:02.804Z,9.00
2022-11-24T07:38:34.054Z,8.90
2022-11-24T07:41:04.556Z,9.00
2022-11-24T07:43:36.140Z,8.90
2022-11-24T07:46:11.892Z,9.00
2022-11-24T07:48:42.624Z,9.00
2022-11-24T07:51:12.964Z,9.00
2022-11-24T07:53:43.499Z,9.10
2022-11-24T07:56:13.846Z,9.00
2022-11-24T07:58:48.295Z,9.10
2022-11-24T08:01:25.467Z,9.00
2022-11-24T08:03:56.066Z,9.00
2022-11-24T08:06:31.892Z,9.00
2022-11-24T08:09:06.494Z,9.00
2022-11-24T08:11:36.915Z,9.00
2022-11-24T08:14:07.148Z,8.90
2022-11-24T08:16:40.043Z,9.00
2022-11-24T08:19:12.034Z,9.00
2022-11-24T08:21:42.270Z,9.00
2022-11-24T08:24:15.345Z,9.00
2022-11-24T08:26:46.204Z,9.00
2022-11-24T08:29:16.702Z,9.00
2022-11-24T08:31:49.639Z,9.00
2022-11-24T08:34:20.131Z,9.10
2022-11-24T08:36:50.326Z,9.10
2022-11-24T08:39:20.895Z,9.00
2022-11-24T08:41:51.306Z,9.00
2022-11-24T08:44:21.590Z,9.00
2022-11-24T08:46:56.500Z,9.10
2022-11-24T08:49:26.899Z,9.00
2022-11-24T08:51:59.679Z,9.10
2022-11-24T08:54:30.144Z,9.10
2022-11-24T08:57:00.464Z,9.10
2022-11-24T08:59:30.900Z,9.20
2022-11-24T09:02:04.033Z,9.10
2022-11-24T09:04:35.077Z,9.20
2022-11-24T09:07:06.757Z,9.30
2022-11-24T09:09:37.266Z,9.40
2022-11-24T09:12:14.205Z,9.30
2022-11-24T09:14:45.076Z,9.30
2022-11-24T09:17:17.938Z,9.40
2022-11-24T09:19:48.306Z,9.30
2022-11-24T09:22:19.378Z,9.40
2022-11-24T09:24:49.772Z,9.40
2022-11-24T09:27:20.001Z,9.40
2022-11-24T09:29:50.354Z,9.40
2022-11-24T09:32:23.274Z,9.60
2022-11-24T09:34:54.123Z,9.50
2022-11-24T09:37:28.189Z,9.50
2022-11-24T09:40:01.617Z,9.60
2022-11-24T09:42:39.325Z,9.60
2022-11-24T09:45:57.494Z,9.70
2022-11-24T09:48:27.034Z,9.60
2022-11-24T09:50:59.822Z,9.60
2022-11-24T09:53:37.247Z,9.70
2022-11-24T09:56:18.152Z,9.70
2022-11-24T09:58:51.283Z,9.70
2022-11-24T10:01:24.618Z,9.80
2022-11-24T10:04:04.271Z,9.80
2022-11-24T10:06:42.922Z,9.80
2022-11-24T10:09:21.391Z,9.80
2022-11-24T10:11:56.772Z,9.90
2022-11-24T10:14:51.818Z,9.90
2022-11-24T10:17:37.651Z,10.00
2022-11-24T10:20:17.937Z,10.00
2022-11-24T10:22:58.381Z,10.00
2022-11-24T10:25:33.701Z,10.10
2022-11-24T10:28:07.463Z,10.10
2022-11-24T10:30:37.868Z,10.10
2022-11-24T10:33:18.616Z,10.20
2022-11-24T10:35:55.306Z,10.20
2022-11-24T10:38:34.010Z,10.20
2022-11-24T10:41:08.999Z,10.20
2022-11-24T10:43:39.745Z,10.30
2022-11-24T10:46:16.929Z,10.30
2022-11-24T10:48:51.451Z,10.30
2022-11-24T10:51:44.480Z,10.40
2022-11-24T10:54:19.923Z,10.50
2022-11-24T10:56:53.443Z,10.50
2022-11-24T10:59:35.262Z,10.50
2022-11-24T11:02:06.963Z,10.60
2022-11-24T11:04:38.491Z,10.60
2022-11-24T11:07:29.589Z,10.60
2022-11-24T11:10:21.645Z,10.70
2022-11-24T11:12:52.154Z,10.70
2022-11-24T11:15:29.973Z,10.80
2022-11-24T11:18:02.183Z,10.80
2022-11-24T11:20:35.271Z,10.90
2022-11-24T11:23:18.467Z,10.90
2022-11-24T11:25:48.806Z,10.90
2022-11-24T11:28:28.315Z,10.90
2022-11-24T11:31:19.864Z,11.00
2022-11-24T11:34:06.348Z,11.00
2022-11-24T11:36:42.199Z,11.10
2022-11-24T11:39:26.857Z,11.10
2022-11-24T11:42:09.559Z,11.10
2022-11-24T11:44:44.930Z,11.10
2022-11-24T11:47:21.669Z,11.10
2022-11-24T11:49:53.028Z,11.20
2022-11-24T11:52:53.654Z,11.20
2022-11-24T11:55:49.699Z,11.20
2022-11-24T11:58:46.110Z,11.30
2022-11-24T12:01:33.531Z,11.40
2022-11-24T12:04:14.928Z,11.40
2022-11-24T12:07:13.565Z,11.40
2022-11-24T12:09:59.149Z,11.50
2022-11-24T12:12:57.808Z,11.60
2022-11-24T12:15:37.804Z,11.60
2022-11-24T12:18:48.971Z,11.70
2022-11-24T12:21:26.135Z,11.70
2022-11-24T12:24:11.176Z,11.70
2022-11-24T12:26:47.145Z,11.70
2022-11-24T12:29:48.323Z,11.70
2022-11-24T12:32:39.993Z,11.70
2022-11-24T12:35:21.371Z,11.70
2022-11-24T12:38:01.524Z,11.70
2022-11-24T12:40:47.123Z,11.70
2022-11-24T12:43:26.102Z,11.60
2022-11-24T12:46:03.589Z,11.70
2022-11-24T12:48:47.411Z,11.70
2022-11-24T12:51:21.293Z,11.80
2022-11-24T12:53:54.027Z,11.90
2022-11-24T12:56:30.064Z,11.90
2022-11-24T12:59:12.409Z,12.00
2022-11-24T13:01:53.469Z,12.10
2022-11-24T13:04:36.715Z,12.00
2022-11-24T13:07:13.424Z,12.00
2022-11-24T13:10:19.296Z,12.00
2022-11-24T13:13:00.261Z,12.00
2022-11-24T13:15:45.583Z,12.00
2022-11-24T13:18:49.992Z,11.90
2022-11-24T13:21:51.195Z,12.00
2022-11-24T13:24:27.351Z,12.00
2022-11-24T13:27:19.871Z,12.00
2022-11-24T13:29:51.195Z,12.00
2022-11-24T13:32:54.350Z,12.00
2022-11-24T13:35:27.259Z,12.10
2022-11-24T13:37:57.889Z,12.00
2022-11-24T13:40:54.606Z,12.00
2022-11-24T13:43:35.739Z,11.90
2022-11-24T13:46:06.611Z,12.00
2022-11-24T13:49:03.885Z,11.90
2022-11-24T13:51:36.735Z,11.90
2022-11-24T13:54:07.239Z,11.90
2022-11-24T13:56:37.666Z,11.90
2022-11-24T13:59:20.444Z,11.80
2022-11-24T14:02:00.454Z,11.80
2022-11-24T14:04:33.452Z,11.80
2022-11-24T14:07:09.871Z,11.80
2022-11-24T14:09:45.253Z,11.80
2022-11-24T14:12:19.224Z,11.70
2022-11-24T14:14:51.393Z,11.80
2022-11-24T14:17:24.446Z,11.80
2022-11-24T14:19:56.338Z,11.70
2022-11-24T14:22:34.885Z,11.70
2022-11-24T14:25:06.504Z,11.80
2022-11-24T14:27:40.218Z,11.60
2022-11-24T14:30:22.424Z,11.70
2022-11-24T14:32:59.777Z,11.70
2022-11-24T14:35:32.067Z,11.70
2022-11-24T14:38:06.608Z,11.70
2022-11-24T14:40:45.488Z,11.70
2022-11-24T14:43:27.057Z,11.70
2022-11-24T14:45:59.159Z,11.60
2022-11-24T14:48:31.598Z,11.60
2022-11-24T14:51:17.844Z,11.60
2022-11-24T14:53:53.903Z,11.60
2022-11-24T14:56:29.573Z,11.60
2022-11-24T14:59:00.886Z,11.60
2022-11-24T15:01:36.561Z,11.60
2022-11-24T15:04:38.887Z,11.70
2022-11-24T15:07:17.520Z,11.60
2022-11-24T15:09:58.151Z,11.50
2022-11-24T15:12:34.467Z,11.50
2022-11-24T15:15:07.373Z,11.50
2022-11-24T15:17:37.807Z,11.50
2022-11-24T15:20:13.486Z,11.40
2022-11-24T15:22:45.094Z,11.50
2022-11-24T15:25:34.448Z,11.40
2022-11-24T15:28:04.680Z,11.50
2022-11-24T15:30:38.258Z,11.40
2022-11-24T15:33:16.519Z,11.40
2022-11-24T15:35:47.871Z,11.40
2022-11-24T15:38:18.783Z,11.40
2022-11-24T15:40:53.654Z,11.40
2022-11-24T15:43:31.693Z,11.40
2022-11-24T15:46:03.383Z,11.40
2022-11-24T15:48:34.223Z,11.30
2022-11-24T15:51:06.821Z,11.30
2022-11-24T15:53:39.791Z,11.30
2022-11-24T15:56:18.025Z,11.30
2022-11-24T15:58:48.675Z,11.30
2022-11-24T16:01:18.975Z,11.20
2022-11-24T16:03:49.616Z,11.20
2022-11-24T16:06:24.977Z,11.20
2022-11-24T16:08:56.287Z,11.10
2022-11-24T16:11:29.332Z,11.20
2022-11-24T16:13:59.679Z,11.20
2022-11-24T16:16:30.145Z,11.10
2022-11-24T16:19:00.587Z,11.20
2022-11-24T16:21:30.878Z,11.10
2022-11-24T16:24:01.227Z,11.10
2022-11-24T16:26:34.121Z,11.00
2022-11-24T16:29:04.477Z,11.00
2022-11-24T16:31:35.004Z,11.00
2022-11-24T16:34:05.503Z,11.10
2022-11-24T16:36:35.741Z,11.00
2022-11-24T16:39:06.197Z,11.00
2022-11-24T16:41:39.359Z,11.00
2022-11-24T16:44:09.769Z,11.00
2022-11-24T16:46:40.024Z,11.10
2022-11-24T16:49:12.369Z,11.00
2022-11-24T16:51:42.852Z,11.00
2022-11-24T16:54:13.356Z,11.00
2022-11-24T16:56:46.158Z,11.00
2022-11-24T16:59:16.415Z,11.00
2022-11-24T17:01:50.592Z,11.00
2022-11-24T17:04:21.218Z,11.00
2022-11-24T17:06:51.475Z,11.00
2022-11-24T17:09:22.364Z,11.00
2022-11-24T17:11:55.207Z,10.90
2022-11-24T17:14:25.951Z,11.00
2022-11-24T17:16:56.280Z,11.00
2022-11-24T17:19:26.671Z,10.90
2022-11-24T17:21:56.895Z,10.90
2022-11-24T17:24:27.225Z,10.90
2022-11-24T17:27:00.110Z,10.90
2022-11-24T17:29:30.393Z,10.90
2022-11-24T17:32:00.637Z,10.90
2022-11-24T17:34:30.998Z,10.90
2022-11-24T17:37:01.176Z,10.80
2022-11-24T17:39:31.452Z,10.90
2022-11-24T17:42:04.291Z,10.80
2022-11-24T17:44:35.211Z,10.80
2022-11-24T17:47:05.518Z,10.80
2022-11-24T17:49:35.832Z,10.80
2022-11-24T17:52:06.091Z,10.80
2022-11-24T17:54:56.520Z,10.80
2022-11-24T17:57:29.279Z,10.80
2022-11-24T17:59:59.530Z,10.80
2022-11-24T18:02:29.861Z,10.80
2022-11-24T18:05:00.220Z,10.70
2022-11-24T18:07:30.401Z,10.70
2022-11-24T18:10:00.908Z,10.70
2022-11-24T18:12:33.718Z,10.80
2022-11-24T18:15:04.063Z,10.70
2022-11-24T18:17:34.272Z,10.70
2022-11-24T18:20:04.558Z,10.70
2022-11-24T18:23:04.025Z,10.70
2022-11-24T18:25:25.387Z,10.70
2022-11-24T18:27:58.241Z,10.70
2022-11-24T18:30:28.624Z,10.70
2022-11-24T18:33:01.015Z,10.70
2022-11-24T18:35:31.380Z,10.70
2022-11-24T18:38:01.577Z,10.70
2022-11-24T18:40:31.884Z,10.60
2022-11-24T18:43:04.708Z,10.60
2022-11-24T18:45:35.230Z,10.60
2022-11-24T18:48:05.531Z,10.70
2022-11-24T18:50:36.192Z,10.60
2022-11-24T18:53:06.435Z,10.60
2022-11-24T18:55:36.970Z,10.60
2022-11-24T18:58:09.871Z,10.60
2022-11-24T19:00:40.196Z,10.60
2022-11-24T19:03:12.303Z,10.60
2022-11-24T19:05:42.959Z,10.60
2022-11-24T19:08:13.193Z,10.60
2022-11-24T19:10:45.423Z,10.60
2022-11-24T19:13:18.284Z,10.60
2022-11-24T19:15:49.702Z,10.60
2022-11-24T19:18:19.912Z,10.60
2022-11-24T19:20:50.287Z,10.60
2022-11-24T19:23:21.198Z,10.50
2022-11-24T19:25:51.529Z,10.60
2022-11-24T19:28:24.399Z,10.60
2022-11-24T19:30:54.873Z,10.60
2022-11-24T19:33:25.050Z,10.60
2022-11-24T19:36:03.416Z,10.60
2022-11-24T19:38:34.199Z,10.60
2022-11-24T19:41:05.742Z,10.50
2022-11-24T19:43:39.472Z,10.50
2022-11-24T19:46:11.935Z,10.50
2022-11-24T19:48:43.685Z,10.60
2022-11-24T19:51:16.954Z,10.60
2022-11-24T19:53:48.210Z,10.60
2022-11-24T19:56:20.978Z,10.50
2022-11-24T19:58:54.797Z,10.60
2022-11-24T20:01:26.970Z,10.60
2022-11-24T20:03:59.230Z,10.60
2022-11-24T20:06:30.756Z,10.60
2022-11-24T20:09:01.941Z,10.60
2022-11-24T20:11:32.857Z,10.60
2022-11-24T20:14:06.240Z,10.70
2022-11-24T20:16:37.668Z,10.60
2022-11-24T20:19:10.102Z,10.70
2022-11-24T20:21:41.743Z,10.70
2022-11-24T20:24:14.875Z,10.70
2022-11-24T20:26:47.407Z,10.70
2022-11-24T20:29:21.117Z,10.60
2022-11-24T20:31:53.088Z,10.70
2022-11-24T20:34:24.208Z,10.70
2022-11-24T20:36:55.716Z,10.60
2022-11-24T20:39:28.717Z,10.50
2022-11-24T20:41:59.361Z,10.60
2022-11-24T20:44:32.194Z,10.60
2022-11-24T20:47:03.409Z,10.60
2022-11-24T20:49:33.694Z,10.70
2022-11-24T20:52:04.053Z,10.70
2022-11-24T20:54:34.710Z,10.70
2022-11-24T20:57:05.329Z,10.70
2022-11-24T20:59:38.248Z,10.70
2022-11-24T21:02:08.994Z,10.70
2022-11-24T21:04:39.207Z,10.70
2022-11-24T21:07:13.536Z,10.80
2022-11-24T21:09:43.803Z,10.80
2022-11-24T21:12:14.117Z,10.80
2022-11-24T21:14:46.939Z,10.80
2022-11-24T21:17:17.234Z,10.80
2022-11-24T21:19:47.392Z,10.80
2022-11-24T21:22:17.739Z,10.90
2022-11-24T21:24:48.028Z,10.90
2022-11-24T21:27:18.387Z,10.90
2022-11-24T21:29:51.254Z,10.90
2022-11-24T21:32:21.846Z,10.90
2022-11-24T21:34:52.602Z,10.90
2022-11-24T21:37:22.929Z,10.90
2022-11-24T21:39:53.195Z,10.90
2022-11-24T21:42:23.534Z,10.90
2022-11-24T21:45:00.665Z,11.00
2022-11-24T21:47:31.163Z,11.00
2022-11-24T21:50:01.393Z,11.00
2022-11-24T21:52:31.835Z,11.00
2022-11-24T21:55:02.303Z,11.00
2022-11-24T21:57:33.008Z,11.00
2022-11-24T22:00:05.923Z,11.00
2022-11-24T22:02:36.799Z,11.10
2022-11-24T22:05:07.494Z,11.10
2022-11-24T22:07:38.043Z,11.10
2022-11-24T22:10:10.226Z,11.10
2022-11-24T22:12:40.535Z,11.10
2022-11-24T22:15:14.103Z,11.10
2022-11-24T22:17:44.367Z,11.10
2022-11-24T22:20:15.006Z,11.20
2022-11-24T22:22:45.354Z,11.10
2022-11-24T22:25:15.652Z,11.20
2022-11-24T22:27:45.911Z,11.20
2022-11-24T22:30:19.204Z,11.20
2022-11-24T22:32:49.475Z,11.20
2022-11-24T22:35:19.763Z,11.20
2022-11-24T22:37:50.197Z,11.20
2022-11-24T22:40:20.697Z,11.20
2022-11-24T22:42:52.622Z,11.30
2022-11-24T22:45:25.554Z,11.30
2022-11-24T22:47:57.096Z,11.30
2022-11-24T22:50:27.488Z,11.40
2022-11-24T22:52:57.856Z,11.40
2022-11-24T22:55:28.324Z,11.40
2022-11-24T22:57:58.644Z,11.40
2022-11-24T23:00:31.712Z,11.40
2022-11-24T23:03:02.078Z,11.40
2022-11-24T23:05:32.347Z,11.40
2022-11-24T23:08:02.776Z,11.40
2022-11-24T23:10:33.082Z,11.40
2022-11-24T23:13:03.461Z,11.40
2022-11-24T23:15:36.247Z,11.40
2022-11-24T23:18:06.542Z,11.50
2022-11-24T23:20:38.120Z,11.50
2022-11-24T23:23:08.621Z,11.50
2022-11-24T23:25:39.233Z,11.50
2022-11-24T23:28:09.518Z,11.50
2022-11-24T23:30:42.379Z,11.60
2022-11-24T23:33:12.666Z,11.50
2022-11-24T23:35:42.867Z,11.60
2022-11-24T23:38:13.182Z,11.60
2022-11-24T23:40:43.377Z,11.60
2022-11-24T23:43:13.716Z,11.60
2022-11-24T23:45:46.605Z,11.60
2022-11-24T23:48:16.928Z,11.60
2022-11-24T23:50:47.139Z,11.60
2022-11-24T23:53:17.475Z,11.70
2022-11-24T23:55:54.664Z,11.70
2022-11-24T23:58:25.020Z,11.70
